sensor_id;sensor_type;location;lat;lon;timestamp;pressure;altitude;pressure_sealevel;temperature;humidity
12123;BME280;6125;59.628;17.852;2024-03-02T00:01:07;101242.78;;;2.84;91.15
12123;BME280;6125;59.628;17.852;2024-03-02T00:03:37;101249.38;;;2.82;91.01
12123;BME280;6125;59.628;17.852;2024-03-02T00:06:20;101251.16;;;2.83;91.08
12123;BME280;6125;59.628;17.852;2024-03-02T00:08:57;101256.88;;;2.80;91.30
12123;BME280;6125;59.628;17.852;2024-03-02T00:11:35;101250.25;;;2.91;91.09
12123;BME280;6125;59.628;17.852;2024-03-02T00:14:08;101248.75;;;2.84;91.17
12123;BME280;6125;59.628;17.852;2024-03-02T00:16:46;101249.94;;;2.88;91.14
12123;BME280;6125;59.628;17.852;2024-03-02T00:19:19;101241.56;;;2.89;91.09
12123;BME280;6125;59.628;17.852;2024-03-02T00:21:53;101250.84;;;2.88;90.98
12123;BME280;6125;59.628;17.852;2024-03-02T00:24:32;101241.25;;;2.95;90.88
12123;BME280;6125;59.628;17.852;2024-03-02T00:27:12;101240.38;;;2.94;90.81
12123;BME280;6125;59.628;17.852;2024-03-02T00:29:42;101236.88;;;2.94;90.73
12123;BME280;6125;59.628;17.852;2024-03-02T00:32:17;101238.84;;;2.96;90.56
12123;BME280;6125;59.628;17.852;2024-03-02T00:34:47;101235.53;;;2.88;90.61
12123;BME280;6125;59.628;17.852;2024-03-02T00:37:18;101242.59;;;2.91;90.66
12123;BME280;6125;59.628;17.852;2024-03-02T00:39:55;101236.75;;;2.92;90.69
12123;BME280;6125;59.628;17.852;2024-03-02T00:42:31;101233.44;;;2.84;90.83
12123;BME280;6125;59.628;17.852;2024-03-02T00:45:14;101240.03;;;2.91;90.81
12123;BME280;6125;59.628;17.852;2024-03-02T00:47:42;101239.31;;;2.92;90.81
12123;BME280;6125;59.628;17.852;2024-03-02T00:50:14;101244.72;;;2.86;90.86
12123;BME280;6125;59.628;17.852;2024-03-02T00:52:56;101246.19;;;2.93;90.82
12123;BME280;6125;59.628;17.852;2024-03-02T00:55:36;101250.13;;;2.89;90.73
12123;BME280;6125;59.628;17.852;2024-03-02T00:58:11;101245.13;;;2.91;90.66
12123;BME280;6125;59.628;17.852;2024-03-02T01:00:39;101246.66;;;2.98;90.46
12123;BME280;6125;59.628;17.852;2024-03-02T01:03:07;101244.41;;;2.92;90.44
12123;BME280;6125;59.628;17.852;2024-03-02T01:05:46;101245.91;;;2.90;90.43
12123;BME280;6125;59.628;17.852;2024-03-02T01:08:17;101245.47;;;2.94;90.41
12123;BME280;6125;59.628;17.852;2024-03-02T01:10:55;101245.13;;;2.91;90.29
12123;BME280;6125;59.628;17.852;2024-03-02T01:13:26;101253.56;;;2.90;90.27
12123;BME280;6125;59.628;17.852;2024-03-02T01:16:03;101255.34;;;2.91;90.39
12123;BME280;6125;59.628;17.852;2024-03-02T01:18:38;101250.25;;;2.91;90.38
12123;BME280;6125;59.628;17.852;2024-03-02T01:21:14;101264.38;;;2.87;90.68
12123;BME280;6125;59.628;17.852;2024-03-02T01:23:47;101255.66;;;2.85;90.61
12123;BME280;6125;59.628;17.852;2024-03-02T01:26:27;101253.41;;;2.88;90.52
12123;BME280;6125;59.628;17.852;2024-03-02T01:28:58;101250.25;;;2.91;90.37
12123;BME280;6125;59.628;17.852;2024-03-02T01:31:33;101260.75;;;2.85;90.35
12123;BME280;6125;59.628;17.852;2024-03-02T01:34:06;101248.47;;;2.90;90.53
12123;BME280;6125;59.628;17.852;2024-03-02T01:36:41;101252.19;;;2.94;90.29
12123;BME280;6125;59.628;17.852;2024-03-02T01:39:11;101254.16;;;2.87;90.34
12123;BME280;6125;59.628;17.852;2024-03-02T01:41:52;101260.16;;;2.88;90.32
12123;BME280;6125;59.628;17.852;2024-03-02T01:44:22;101262.72;;;2.88;89.95
12123;BME280;6125;59.628;17.852;2024-03-02T01:47:02;101247.28;;;2.86;90.12
12123;BME280;6125;59.628;17.852;2024-03-02T01:49:36;101261.69;;;2.86;90.16
12123;BME280;6125;59.628;17.852;2024-03-02T01:52:15;101265.28;;;2.88;89.94
12123;BME280;6125;59.628;17.852;2024-03-02T01:54:45;101261.53;;;2.84;90.16
12123;BME280;6125;59.628;17.852;2024-03-02T01:57:30;101251.47;;;2.77;89.85
12123;BME280;6125;59.628;17.852;2024-03-02T02:00:00;101260.34;;;2.81;90.28
12123;BME280;6125;59.628;17.852;2024-03-02T02:02:41;101252.81;;;2.74;89.98
12123;BME280;6125;59.628;17.852;2024-03-02T02:05:10;101252.69;;;2.72;90.01
12123;BME280;6125;59.628;17.852;2024-03-02T02:07:49;101260.78;;;2.68;90.17
12123;BME280;6125;59.628;17.852;2024-03-02T02:10:17;101249.50;;;2.66;90.20
12123;BME280;6125;59.628;17.852;2024-03-02T02:12:51;101256.88;;;2.63;90.21
12123;BME280;6125;59.628;17.852;2024-03-02T02:15:27;101256.75;;;2.61;90.25
12123;BME280;6125;59.628;17.852;2024-03-02T02:17:56;101242.78;;;2.58;90.20
12123;BME280;6125;59.628;17.852;2024-03-02T02:20:24;101250.88;;;2.54;90.43
12123;BME280;6125;59.628;17.852;2024-03-02T02:23:05;101248.78;;;2.50;90.48
12123;BME280;6125;59.628;17.852;2024-03-02T02:25:38;101255.09;;;2.44;90.59
12123;BME280;6125;59.628;17.852;2024-03-02T02:28:13;101243.06;;;2.43;90.40
12123;BME280;6125;59.628;17.852;2024-03-02T02:30:43;101247.56;;;2.37;90.58
12123;BME280;6125;59.628;17.852;2024-03-02T02:33:12;101241.88;;;2.40;90.70
12123;BME280;6125;59.628;17.852;2024-03-02T02:35:47;101246.66;;;2.37;90.78
12123;BME280;6125;59.628;17.852;2024-03-02T02:38:25;101252.06;;;2.40;90.74
12123;BME280;6125;59.628;17.852;2024-03-02T02:41:02;101255.97;;;2.36;90.55
12123;BME280;6125;59.628;17.852;2024-03-02T02:43:31;101262.56;;;2.34;90.74
12123;BME280;6125;59.628;17.852;2024-03-02T02:45:59;101248.63;;;2.31;90.58
12123;BME280;6125;59.628;17.852;2024-03-02T02:48:43;101255.97;;;2.28;90.69
12123;BME280;6125;59.628;17.852;2024-03-02T02:51:14;101270.19;;;2.26;90.71
12123;BME280;6125;59.628;17.852;2024-03-02T02:53:54;101268.41;;;2.24;90.42
12123;BME280;6125;59.628;17.852;2024-03-02T02:56:22;101260.91;;;2.26;90.71
12123;BME280;6125;59.628;17.852;2024-03-02T02:58:53;101271.69;;;2.23;90.61
12123;BME280;6125;59.628;17.852;2024-03-02T03:01:29;101262.38;;;2.24;90.61
12123;BME280;6125;59.628;17.852;2024-03-02T03:04:00;101253.53;;;2.20;90.53
12123;BME280;6125;59.628;17.852;2024-03-02T03:06:35;101263.44;;;2.17;90.61
12123;BME280;6125;59.628;17.852;2024-03-02T03:09:06;101258.94;;;2.15;90.74
12123;BME280;6125;59.628;17.852;2024-03-02T03:11:44;101253.53;;;2.12;90.76
12123;BME280;6125;59.628;17.852;2024-03-02T03:14:14;101251.16;;;2.13;90.69
12123;BME280;6125;59.628;17.852;2024-03-02T03:16:49;101247.53;;;2.11;90.68
12123;BME280;6125;59.628;17.852;2024-03-02T03:19:27;101254.56;;;2.05;90.95
12123;BME280;6125;59.628;17.852;2024-03-02T03:21:55;101258.91;;;2.06;90.92
12123;BME280;6125;59.628;17.852;2024-03-02T03:24:31;101255.88;;;2.01;91.11
12123;BME280;6125;59.628;17.852;2024-03-02T03:27:08;101265.19;;;2.01;91.23
12123;BME280;6125;59.628;17.852;2024-03-02T03:29:47;101254.56;;;2.05;90.97
12123;BME280;6125;59.628;17.852;2024-03-02T03:32:26;101249.47;;;2.05;90.98
12123;BME280;6125;59.628;17.852;2024-03-02T03:34:57;101257.53;;;2.01;91.10
12123;BME280;6125;59.628;17.852;2024-03-02T03:37:30;101261.91;;;2.02;90.92
12123;BME280;6125;59.628;17.852;2024-03-02T03:40:08;101254.56;;;1.96;91.03
12123;BME280;6125;59.628;17.852;2024-03-02T03:42:38;101250.19;;;1.95;90.86
12123;BME280;6125;59.628;17.852;2024-03-02T03:45:13;101250.47;;;1.90;90.97
12123;BME280;6125;59.628;17.852;2024-03-02T03:47:45;101252.28;;;1.91;91.35
12123;BME280;6125;59.628;17.852;2024-03-02T03:50:20;101252.88;;;1.88;91.26
12123;BME280;6125;59.628;17.852;2024-03-02T03:53:04;101258.41;;;1.84;91.45
12123;BME280;6125;59.628;17.852;2024-03-02T03:55:47;101258.09;;;1.81;91.15
12123;BME280;6125;59.628;17.852;2024-03-02T03:58:16;101266.94;;;1.85;91.09
12123;BME280;6125;59.628;17.852;2024-03-02T04:00:55;101268.59;;;1.84;90.93
12123;BME280;6125;59.628;17.852;2024-03-02T04:03:23;101266.22;;;1.86;91.33
12123;BME280;6125;59.628;17.852;2024-03-02T04:05:52;101275.66;;;1.87;91.33
12123;BME280;6125;59.628;17.852;2024-03-02T04:08:29;101273.53;;;1.83;91.04
12123;BME280;6125;59.628;17.852;2024-03-02T04:11:01;101281.78;;;1.80;91.21
12123;BME280;6125;59.628;17.852;2024-03-02T04:13:38;101282.38;;;1.77;91.63
12123;BME280;6125;59.628;17.852;2024-03-02T04:16:10;101278.47;;;1.81;91.20
12123;BME280;6125;59.628;17.852;2024-03-02T04:18:45;101286.88;;;1.80;91.34
12123;BME280;6125;59.628;17.852;2024-03-02T04:21:18;101279.81;;;1.77;91.15
12123;BME280;6125;59.628;17.852;2024-03-02T04:23:58;101288.22;;;1.76;91.25
12123;BME280;6125;59.628;17.852;2024-03-02T04:26:34;101277.84;;;1.75;91.10
12123;BME280;6125;59.628;17.852;2024-03-02T04:29:17;101274.22;;;1.64;91.46
12123;BME280;6125;59.628;17.852;2024-03-02T04:31:45;101270.19;;;1.66;91.14
12123;BME280;6125;59.628;17.852;2024-03-02T04:34:20;101279.31;;;1.64;91.46
12123;BME280;6125;59.628;17.852;2024-03-02T04:36:54;101274.06;;;1.63;91.53
12123;BME280;6125;59.628;17.852;2024-03-02T04:39:29;101267.75;;;1.59;91.34
12123;BME280;6125;59.628;17.852;2024-03-02T04:42:01;101282.44;;;1.62;91.20
12123;BME280;6125;59.628;17.852;2024-03-02T04:44:38;101280.91;;;1.55;91.64
12123;BME280;6125;59.628;17.852;2024-03-02T04:47:07;101286.88;;;1.47;91.14
12123;BME280;6125;59.628;17.852;2024-03-02T04:49:45;101282.84;;;1.49;91.44
12123;BME280;6125;59.628;17.852;2024-03-02T04:52:13;101283.56;;;1.48;91.46
12123;BME280;6125;59.628;17.852;2024-03-02T04:54:41;101285.06;;;1.46;91.17
12123;BME280;6125;59.628;17.852;2024-03-02T04:57:34;101284.16;;;1.45;91.41
12123;BME280;6125;59.628;17.852;2024-03-02T05:00:03;101280.25;;;1.40;91.90
12123;BME280;6125;59.628;17.852;2024-03-02T05:02:40;101289.50;;;1.40;91.60
12123;BME280;6125;59.628;17.852;2024-03-02T05:05:11;101296.44;;;1.41;91.58
12123;BME280;6125;59.628;17.852;2024-03-02T05:07:49;101298.50;;;1.36;91.52
12123;BME280;6125;59.628;17.852;2024-03-02T05:10:20;101294.59;;;1.40;92.12
12123;BME280;6125;59.628;17.852;2024-03-02T05:12:56;101291.59;;;1.35;91.62
12123;BME280;6125;59.628;17.852;2024-03-02T05:15:27;101300.44;;;1.39;92.02
12123;BME280;6125;59.628;17.852;2024-03-02T05:17:54;101289.50;;;1.40;91.69
12123;BME280;6125;59.628;17.852;2024-03-02T05:20:35;101290.25;;;1.39;91.70
12123;BME280;6125;59.628;17.852;2024-03-02T05:23:07;101288.47;;;1.38;91.55
12123;BME280;6125;59.628;17.852;2024-03-02T05:25:42;101290.84;;;1.36;91.88
12123;BME280;6125;59.628;17.852;2024-03-02T05:28:16;101289.19;;;1.37;92.18
12123;BME280;6125;59.628;17.852;2024-03-02T05:30:51;101288.47;;;1.38;92.09
12123;BME280;6125;59.628;17.852;2024-03-02T05:33:20;101284.41;;;1.40;91.60
12123;BME280;6125;59.628;17.852;2024-03-02T05:35:58;101282.94;;;1.42;91.56
12123;BME280;6125;59.628;17.852;2024-03-02T05:38:28;101288.78;;;1.41;92.10
12123;BME280;6125;59.628;17.852;2024-03-02T05:41:00;101287.44;;;1.44;91.74
12123;BME280;6125;59.628;17.852;2024-03-02T05:43:36;101287.28;;;1.43;91.89
12123;BME280;6125;59.628;17.852;2024-03-02T05:46:07;101289.81;;;1.43;91.71
12123;BME280;6125;59.628;17.852;2024-03-02T05:48:42;101282.09;;;1.50;91.57
12123;BME280;6125;59.628;17.852;2024-03-02T05:51:13;101287.19;;;1.50;91.79
12123;BME280;6125;59.628;17.852;2024-03-02T05:53:41;101292.53;;;1.44;91.55
12123;BME280;6125;59.628;17.852;2024-03-02T05:56:39;101286.69;;;1.45;91.38
12123;BME280;6125;59.628;17.852;2024-03-02T05:59:25;101294.66;;;1.48;92.05
12123;BME280;6125;59.628;17.852;2024-03-02T06:01:54;101302.16;;;1.47;91.67
12123;BME280;6125;59.628;17.852;2024-03-02T06:04:34;101298.44;;;1.52;91.51
12123;BME280;6125;59.628;17.852;2024-03-02T06:07:03;101312.06;;;1.52;91.58
12123;BME280;6125;59.628;17.852;2024-03-02T06:09:38;101300.66;;;1.49;91.69
12123;BME280;6125;59.628;17.852;2024-03-02T06:12:07;101313.53;;;1.50;91.47
12123;BME280;6125;59.628;17.852;2024-03-02T06:14:39;101321.22;;;1.59;91.63
12123;BME280;6125;59.628;17.852;2024-03-02T06:17:20;101316.13;;;1.59;91.33
12123;BME280;6125;59.628;17.852;2024-03-02T06:19:50;101325.91;;;1.63;91.37
12123;BME280;6125;59.628;17.852;2024-03-02T06:22:30;101328.88;;;1.59;91.16
12123;BME280;6125;59.628;17.852;2024-03-02T06:25:03;101337.41;;;1.60;91.40
12123;BME280;6125;59.628;17.852;2024-03-02T06:27:41;101329.03;;;1.61;91.21
12123;BME280;6125;59.628;17.852;2024-03-02T06:30:14;101329.19;;;1.62;91.29
12123;BME280;6125;59.628;17.852;2024-03-02T06:32:49;101337.13;;;1.65;91.14
12123;BME280;6125;59.628;17.852;2024-03-02T06:35:23;101339.28;;;1.69;91.24
12123;BME280;6125;59.628;17.852;2024-03-02T06:38:06;101339.16;;;1.76;90.73
12123;BME280;6125;59.628;17.852;2024-03-02T06:40:39;101354.47;;;1.76;90.83
12123;BME280;6125;59.628;17.852;2024-03-02T06:43:16;101367.25;;;1.85;90.91
12123;BME280;6125;59.628;17.852;2024-03-02T06:45:50;101341.28;;;1.81;90.72
12123;BME280;6125;59.628;17.852;2024-03-02T06:48:25;101348.34;;;1.83;91.15
12123;BME280;6125;59.628;17.852;2024-03-02T06:50:59;101343.84;;;1.89;91.03
12123;BME280;6125;59.628;17.852;2024-03-02T06:53:36;101366.81;;;1.98;90.62
12123;BME280;6125;59.628;17.852;2024-03-02T06:56:07;101350.03;;;1.91;90.30
12123;BME280;6125;59.628;17.852;2024-03-02T06:58:44;101345.66;;;1.90;90.32
12123;BME280;6125;59.628;17.852;2024-03-02T07:01:13;101356.94;;;2.01;90.51
12123;BME280;6125;59.628;17.852;2024-03-02T07:03:42;101346.91;;;2.03;90.49
12123;BME280;6125;59.628;17.852;2024-03-02T07:06:20;101351.56;;;2.07;90.28
12123;BME280;6125;59.628;17.852;2024-03-02T07:08:52;101348.00;;;2.13;89.97
12123;BME280;6125;59.628;17.852;2024-03-02T07:11:27;101357.44;;;2.14;89.93
12123;BME280;6125;59.628;17.852;2024-03-02T07:13:55;101365.41;;;2.17;89.82
12123;BME280;6125;59.628;17.852;2024-03-02T07:16:29;101378.50;;;2.29;89.48
12123;BME280;6125;59.628;17.852;2024-03-02T07:19:06;101362.47;;;2.30;89.44
12123;BME280;6125;59.628;17.852;2024-03-02T07:21:36;101357.81;;;2.35;89.34
12123;BME280;6125;59.628;17.852;2024-03-02T07:24:06;101366.09;;;2.41;89.49
12123;BME280;6125;59.628;17.852;2024-03-02T07:26:52;101361.91;;;2.50;89.08
12123;BME280;6125;59.628;17.852;2024-03-02T07:29:21;101373.31;;;2.54;88.92
12123;BME280;6125;59.628;17.852;2024-03-02T07:32:05;101362.69;;;2.58;88.58
12123;BME280;6125;59.628;17.852;2024-03-02T07:34:36;101367.63;;;2.56;88.67
12123;BME280;6125;59.628;17.852;2024-03-02T07:37:14;101375.59;;;2.68;88.28
12123;BME280;6125;59.628;17.852;2024-03-02T07:39:43;101371.84;;;2.73;87.96
12123;BME280;6125;59.628;17.852;2024-03-02T07:42:18;101372.16;;;2.76;87.97
12123;BME280;6125;59.628;17.852;2024-03-02T07:44:53;101362.25;;;2.71;87.92
12123;BME280;6125;59.628;17.852;2024-03-02T07:47:28;101367.22;;;2.78;88.02
12123;BME280;6125;59.628;17.852;2024-03-02T07:50:11;101380.59;;;2.84;87.96
12123;BME280;6125;59.628;17.852;2024-03-02T07:52:40;101368.41;;;2.90;87.73
12123;BME280;6125;59.628;17.852;2024-03-02T07:55:15;101375.66;;;2.94;87.62
12123;BME280;6125;59.628;17.852;2024-03-02T07:57:48;101367.53;;;2.98;87.25
12123;BME280;6125;59.628;17.852;2024-03-02T08:00:30;101383.44;;;3.13;86.98
12123;BME280;6125;59.628;17.852;2024-03-02T08:03:08;101366.47;;;3.13;87.29
12123;BME280;6125;59.628;17.852;2024-03-02T08:05:46;101374.28;;;3.06;87.08
12123;BME280;6125;59.628;17.852;2024-03-02T08:08:15;101402.84;;;3.20;87.13
12123;BME280;6125;59.628;17.852;2024-03-02T08:10:55;101378.78;;;3.18;87.02
12123;BME280;6125;59.628;17.852;2024-03-02T08:13:30;101382.09;;;3.25;86.75
12123;BME280;6125;59.628;17.852;2024-03-02T08:16:06;101377.59;;;3.23;86.54
12123;BME280;6125;59.628;17.852;2024-03-02T08:18:40;101377.44;;;3.30;86.40
12123;BME280;6125;59.628;17.852;2024-03-02T08:21:15;101381.63;;;3.29;86.50
12123;BME280;6125;59.628;17.852;2024-03-02T08:23:46;101384.78;;;3.35;86.18
12123;BME280;6125;59.628;17.852;2024-03-02T08:26:14;101386.44;;;3.35;86.16
12123;BME280;6125;59.628;17.852;2024-03-02T08:28:50;101377.72;;;3.33;86.08
12123;BME280;6125;59.628;17.852;2024-03-02T08:31:25;101386.00;;;3.39;85.92
12123;BME280;6125;59.628;17.852;2024-03-02T08:34:01;101382.97;;;3.43;86.03
12123;BME280;6125;59.628;17.852;2024-03-02T08:36:38;101377.09;;;3.44;86.09
12123;BME280;6125;59.628;17.852;2024-03-02T08:39:13;101383.44;;;3.48;85.84
12123;BME280;6125;59.628;17.852;2024-03-02T08:41:46;101385.69;;;3.45;85.60
12123;BME280;6125;59.628;17.852;2024-03-02T08:44:24;101381.91;;;3.50;85.41
12123;BME280;6125;59.628;17.852;2024-03-02T08:46:55;101391.69;;;3.54;85.54
12123;BME280;6125;59.628;17.852;2024-03-02T08:49:33;101389.59;;;3.58;85.34
12123;BME280;6125;59.628;17.852;2024-03-02T08:52:07;101393.47;;;3.64;85.18
12123;BME280;6125;59.628;17.852;2024-03-02T08:54:48;101398.56;;;3.64;84.96
12123;BME280;6125;59.628;17.852;2024-03-02T08:57:25;101422.94;;;3.60;85.10
12123;BME280;6125;59.628;17.852;2024-03-02T09:00:05;101392.88;;;3.57;85.34
12123;BME280;6125;59.628;17.852;2024-03-02T09:02:36;101391.09;;;3.56;85.56
12123;BME280;6125;59.628;17.852;2024-03-02T09:05:12;101388.34;;;3.64;85.60
12123;BME280;6125;59.628;17.852;2024-03-02T09:07:47;101386.84;;;3.66;85.12
12123;BME280;6125;59.628;17.852;2024-03-02T09:10:22;101386.53;;;3.71;85.22
12123;BME280;6125;59.628;17.852;2024-03-02T09:12:54;101382.22;;;3.62;85.68
12123;BME280;6125;59.628;17.852;2024-03-02T09:15:30;101415.13;;;3.67;85.78
12123;BME280;6125;59.628;17.852;2024-03-02T09:18:08;101383.09;;;3.71;85.31
12123;BME280;6125;59.628;17.852;2024-03-02T09:20:45;101390.31;;;3.66;85.19
12123;BME280;6125;59.628;17.852;2024-03-02T09:23:13;101384.16;;;3.73;84.59
12123;BME280;6125;59.628;17.852;2024-03-02T09:26:01;101381.28;;;3.70;84.62
12123;BME280;6125;59.628;17.852;2024-03-02T09:28:30;101385.97;;;3.65;85.24
12123;BME280;6125;59.628;17.852;2024-03-02T09:31:09;101390.88;;;3.72;84.93
12123;BME280;6125;59.628;17.852;2024-03-02T09:33:40;101388.50;;;3.65;84.53
12123;BME280;6125;59.628;17.852;2024-03-02T09:36:19;101398.72;;;3.74;84.44
12123;BME280;6125;59.628;17.852;2024-03-02T09:38:47;101422.47;;;3.81;84.06
12123;BME280;6125;59.628;17.852;2024-03-02T09:41:22;101388.94;;;3.78;84.27
12123;BME280;6125;59.628;17.852;2024-03-02T09:43:55;101382.59;;;3.92;84.33
12123;BME280;6125;59.628;17.852;2024-03-02T09:46:31;101379.28;;;3.85;84.06
12123;BME280;6125;59.628;17.852;2024-03-02T09:48:59;101381.41;;;3.80;84.67
12123;BME280;6125;59.628;17.852;2024-03-02T09:51:29;101377.16;;;3.89;84.20
12123;BME280;6125;59.628;17.852;2024-03-02T09:54:07;101389.50;;;3.93;83.92
12123;BME280;6125;59.628;17.852;2024-03-02T09:56:47;101387.78;;;4.02;83.48
12123;BME280;6125;59.628;17.852;2024-03-02T09:59:42;101432.16;;;4.12;83.33
12123;BME280;6125;59.628;17.852;2024-03-02T10:02:14;101394.22;;;4.16;83.01
12123;BME280;6125;59.628;17.852;2024-03-02T10:04:49;101391.03;;;4.19;82.57
12123;BME280;6125;59.628;17.852;2024-03-02T10:07:22;101407.38;;;4.38;82.89
12123;BME280;6125;59.628;17.852;2024-03-02T10:09:57;101396.75;;;4.53;81.22
12123;BME280;6125;59.628;17.852;2024-03-02T10:12:26;101398.84;;;4.57;81.33
12123;BME280;6125;59.628;17.852;2024-03-02T10:15:03;101396.75;;;4.53;81.35
12123;BME280;6125;59.628;17.852;2024-03-02T10:17:40;101393.25;;;4.61;81.15
12123;BME280;6125;59.628;17.852;2024-03-02T10:20:22;101390.84;;;4.62;80.65
12123;BME280;6125;59.628;17.852;2024-03-02T10:23:09;101385.38;;;4.68;80.28
12123;BME280;6125;59.628;17.852;2024-03-02T10:25:39;101429.56;;;4.57;81.07
12123;BME280;6125;59.628;17.852;2024-03-02T10:28:24;101386.63;;;4.63;80.70
12123;BME280;6125;59.628;17.852;2024-03-02T10:30:58;101393.53;;;4.64;80.68
12123;BME280;6125;59.628;17.852;2024-03-02T10:33:43;101395.53;;;4.58;80.36
12123;BME280;6125;59.628;17.852;2024-03-02T10:36:13;101392.69;;;4.55;80.35
12123;BME280;6125;59.628;17.852;2024-03-02T10:38:51;101399.59;;;4.56;80.36
12123;BME280;6125;59.628;17.852;2024-03-02T10:41:23;101406.09;;;4.52;80.62
12123;BME280;6125;59.628;17.852;2024-03-02T10:43:58;101413.34;;;4.47;80.28
12123;BME280;6125;59.628;17.852;2024-03-02T10:46:29;101410.38;;;4.43;80.98
12123;BME280;6125;59.628;17.852;2024-03-02T10:49:08;101402.41;;;4.31;81.33
12123;BME280;6125;59.628;17.852;2024-03-02T10:51:39;101398.84;;;4.29;81.43
12123;BME280;6125;59.628;17.852;2024-03-02T10:54:15;101397.63;;;4.34;81.10
12123;BME280;6125;59.628;17.852;2024-03-02T10:56:46;101396.28;;;4.29;80.69
12123;BME280;6125;59.628;17.852;2024-03-02T10:59:27;101400.34;;;4.27;80.95
12123;BME280;6125;59.628;17.852;2024-03-02T11:01:59;101394.94;;;4.24;80.50
12123;BME280;6125;59.628;17.852;2024-03-02T11:04:37;101391.03;;;4.19;81.31
12123;BME280;6125;59.628;17.852;2024-03-02T11:07:09;101392.84;;;4.20;81.52
12123;BME280;6125;59.628;17.852;2024-03-02T11:09:54;101388.03;;;4.23;81.07
12123;BME280;6125;59.628;17.852;2024-03-02T11:12:29;101387.06;;;4.31;80.69
12123;BME280;6125;59.628;17.852;2024-03-02T11:15:10;101392.91;;;4.39;80.74
12123;BME280;6125;59.628;17.852;2024-03-02T11:17:40;101440.94;;;4.33;80.49
12123;BME280;6125;59.628;17.852;2024-03-02T11:20:19;101390.88;;;4.26;80.50
12123;BME280;6125;59.628;17.852;2024-03-02T11:22:50;101390.72;;;4.24;80.46
12123;BME280;6125;59.628;17.852;2024-03-02T11:25:31;101387.28;;;4.24;80.69
12123;BME280;6125;59.628;17.852;2024-03-02T11:28:07;101382.75;;;4.21;80.94
12123;BME280;6125;59.628;17.852;2024-03-02T11:30:52;101386.63;;;4.35;80.44
12123;BME280;6125;59.628;17.852;2024-03-02T11:33:24;101387.84;;;4.30;80.40
12123;BME280;6125;59.628;17.852;2024-03-02T11:36:00;101394.84;;;4.41;80.25
12123;BME280;6125;59.628;17.852;2024-03-02T11:38:41;101395.91;;;4.43;80.55
12123;BME280;6125;59.628;17.852;2024-03-02T11:41:22;101398.53;;;4.54;79.80
12123;BME280;6125;59.628;17.852;2024-03-02T11:43:53;101387.06;;;4.59;79.45
12123;BME280;6125;59.628;17.852;2024-03-02T11:46:30;101387.34;;;4.62;79.41
12123;BME280;6125;59.628;17.852;2024-03-02T11:48:59;101387.56;;;4.55;79.30
12123;BME280;6125;59.628;17.852;2024-03-02T11:51:32;101387.91;;;4.49;79.48
12123;BME280;6125;59.628;17.852;2024-03-02T11:54:09;101384.19;;;4.64;79.45
12123;BME280;6125;59.628;17.852;2024-03-02T11:56:41;101379.50;;;4.69;79.30
12123;BME280;6125;59.628;17.852;2024-03-02T11:59:20;101392.13;;;4.76;79.40
12123;BME280;6125;59.628;17.852;2024-03-02T12:01:49;101394.69;;;4.67;78.99
12123;BME280;6125;59.628;17.852;2024-03-02T12:04:24;101400.66;;;4.58;79.04
12123;BME280;6125;59.628;17.852;2024-03-02T12:06:59;101403.75;;;4.64;78.89
12123;BME280;6125;59.628;17.852;2024-03-02T12:09:34;101402.31;;;4.57;79.27
12123;BME280;6125;59.628;17.852;2024-03-02T12:12:13;101404.66;;;4.64;78.84
12123;BME280;6125;59.628;17.852;2024-03-02T12:14:55;101397.59;;;4.62;79.74
12123;BME280;6125;59.628;17.852;2024-03-02T12:17:30;101394.31;;;4.63;78.74
12123;BME280;6125;59.628;17.852;2024-03-02T12:20:12;101383.78;;;4.60;78.92
12123;BME280;6125;59.628;17.852;2024-03-02T12:22:40;101389.56;;;4.48;79.75
12123;BME280;6125;59.628;17.852;2024-03-02T12:25:13;101387.56;;;4.55;79.48
12123;BME280;6125;59.628;17.852;2024-03-02T12:27:52;101380.16;;;4.58;79.09
12123;BME280;6125;59.628;17.852;2024-03-02T12:30:22;101379.44;;;4.50;78.99
12123;BME280;6125;59.628;17.852;2024-03-02T12:32:56;101389.28;;;4.45;79.32
12123;BME280;6125;59.628;17.852;2024-03-02T12:35:26;101395.06;;;4.34;79.31
12123;BME280;6125;59.628;17.852;2024-03-02T12:37:54;101417.94;;;4.33;79.55
12123;BME280;6125;59.628;17.852;2024-03-02T12:40:31;101393.56;;;4.28;79.81
12123;BME280;6125;59.628;17.852;2024-03-02T12:43:02;101383.94;;;4.25;79.71
12123;BME280;6125;59.628;17.852;2024-03-02T12:45:37;101414.94;;;4.28;79.80
12123;BME280;6125;59.628;17.852;2024-03-02T12:48:07;101396.28;;;4.29;79.89
12123;BME280;6125;59.628;17.852;2024-03-02T12:50:39;101390.59;;;4.23;79.93
12123;BME280;6125;59.628;17.852;2024-03-02T12:53:15;101392.63;;;4.36;79.14
12123;BME280;6125;59.628;17.852;2024-03-02T12:55:47;101382.72;;;4.30;79.36
12123;BME280;6125;59.628;17.852;2024-03-02T12:58:26;101379.88;;;4.27;79.73
12123;BME280;6125;59.628;17.852;2024-03-02T13:01:11;101383.09;;;4.16;79.70
12123;BME280;6125;59.628;17.852;2024-03-02T13:03:48;101385.50;;;4.14;79.34
12123;BME280;6125;59.628;17.852;2024-03-02T13:06:19;101381.59;;;4.18;79.83
12123;BME280;6125;59.628;17.852;2024-03-02T13:08:54;101384.19;;;4.00;80.44
12123;BME280;6125;59.628;17.852;2024-03-02T13:11:26;101393.97;;;4.04;79.96
12123;BME280;6125;59.628;17.852;2024-03-02T13:13:55;101403.09;;;4.11;79.67
12123;BME280;6125;59.628;17.852;2024-03-02T13:16:30;101391.66;;;4.16;79.53
12123;BME280;6125;59.628;17.852;2024-03-02T13:19:12;101393.66;;;4.10;80.07
12123;BME280;6125;59.628;17.852;2024-03-02T13:22:12;101391.25;;;4.03;79.97
12123;BME280;6125;59.628;17.852;2024-03-02T13:24:48;101395.59;;;4.13;79.93
12123;BME280;6125;59.628;17.852;2024-03-02T13:27:27;101401.75;;;4.15;79.61
12123;BME280;6125;59.628;17.852;2024-03-02T13:30:03;101399.06;;;4.04;80.59
12123;BME280;6125;59.628;17.852;2024-03-02T13:32:39;101396.25;;;3.93;80.60
12123;BME280;6125;59.628;17.852;2024-03-02T13:35:08;101394.16;;;3.89;80.15
12123;BME280;6125;59.628;17.852;2024-03-02T13:37:38;101390.41;;;3.85;80.74
12123;BME280;6125;59.628;17.852;2024-03-02T13:40:12;101390.66;;;3.97;79.99